sensor_id;sensor_type;location;lat;lon;timestamp;pressure;altitude;pressure_sealevel;temperature;humidity
51759;BME280;66684;47.568;18.734;2023-05-11T00:01:25;99548.47;;;12.18;74.77
51759;BME280;66684;47.568;18.734;2023-05-11T00:03:51;99550.44;;;12.25;72.37
51759;BME280;66684;47.568;18.734;2023-05-11T00:06:17;99551.28;;;12.24;73.77
51759;BME280;66684;47.568;18.734;2023-05-11T00:08:43;99551.03;;;12.43;74.27
51759;BME280;66684;47.568;18.734;2023-05-11T00:11:08;99553.19;;;12.57;73.43
51759;BME280;66684;47.568;18.734;2023-05-11T00:13:34;99550.06;;;12.67;71.46
51759;BME280;66684;47.568;18.734;2023-05-11T00:16:00;99539.69;;;12.67;73.44
51759;BME280;66684;47.568;18.734;2023-05-11T00:18:26;99536.37;;;12.71;73.68
51759;BME280;66684;47.568;18.734;2023-05-11T00:20:52;99548.91;;;12.57;74.90
51759;BME280;66684;47.568;18.734;2023-05-11T00:23:18;99546.94;;;12.50;75.90
51759;BME280;66684;47.568;18.734;2023-05-11T00:25:44;99542.47;;;12.45;75.84
51759;BME280;66684;47.568;18.734;2023-05-11T00:28:10;99549.84;;;12.07;79.21
51759;BME280;66684;47.568;18.734;2023-05-11T00:30:36;99551.69;;;12.11;78.98
51759;BME280;66684;47.568;18.734;2023-05-11T00:33:02;99549.44;;;11.95;80.09
51759;BME280;66684;47.568;18.734;2023-05-11T00:35:28;99547.78;;;11.97;80.58
51759;BME280;66684;47.568;18.734;2023-05-11T00:37:54;99546.22;;;12.02;80.60
51759;BME280;66684;47.568;18.734;2023-05-11T00:40:20;99549.47;;;11.96;81.63
51759;BME280;66684;47.568;18.734;2023-05-11T00:42:46;99551.53;;;11.81;82.72
51759;BME280;66684;47.568;18.734;2023-05-11T00:45:11;99549.38;;;11.69;82.49
51759;BME280;66684;47.568;18.734;2023-05-11T00:47:37;99539.41;;;11.56;83.04
51759;BME280;66684;47.568;18.734;2023-05-11T00:50:03;99547.91;;;11.52;83.18
51759;BME280;66684;47.568;18.734;2023-05-11T00:52:30;99545.34;;;11.29;86.90
51759;BME280;66684;47.568;18.734;2023-05-11T00:54:56;99544.91;;;11.41;84.78
51759;BME280;66684;47.568;18.734;2023-05-11T00:57:21;99546.84;;;11.47;82.27
51759;BME280;66684;47.568;18.734;2023-05-11T00:59:48;99548.66;;;11.49;82.19
51759;BME280;66684;47.568;18.734;2023-05-11T01:02:14;99544.56;;;11.56;81.00
51759;BME280;66684;47.568;18.734;2023-05-11T01:04:40;99535.06;;;11.55;82.98
51759;BME280;66684;47.568;18.734;2023-05-11T01:07:24;99535.66;;;11.48;82.72
51759;BME280;66684;47.568;18.734;2023-05-11T01:12:47;99544.47;;;11.53;84.41
51759;BME280;66684;47.568;18.734;2023-05-11T01:20:47;99540.53;;;11.39;84.76
51759;BME280;66684;47.568;18.734;2023-05-11T01:31:25;99541.84;;;11.27;87.46
51759;BME280;66684;47.568;18.734;2023-05-11T01:33:58;99541.16;;;11.09;87.89
51759;BME280;66684;47.568;18.734;2023-05-11T01:36:36;99536.63;;;11.03;88.90
51759;BME280;66684;47.568;18.734;2023-05-11T01:39:07;99530.41;;;10.98;89.24
51759;BME280;66684;47.568;18.734;2023-05-11T01:41:36;99538.56;;;10.87;89.97
51759;BME280;66684;47.568;18.734;2023-05-11T01:44:05;99531.69;;;10.87;89.83
51759;BME280;66684;47.568;18.734;2023-05-11T01:46:32;99535.84;;;10.82;90.32
51759;BME280;66684;47.568;18.734;2023-05-11T01:49:01;99534.81;;;10.78;91.61
51759;BME280;66684;47.568;18.734;2023-05-11T01:51:32;99540.97;;;10.60;92.14
51759;BME280;66684;47.568;18.734;2023-05-11T01:53:59;99540.69;;;10.52;92.59
51759;BME280;66684;47.568;18.734;2023-05-11T01:56:26;99533.12;;;10.57;92.39
51759;BME280;66684;47.568;18.734;2023-05-11T01:58:55;99530.84;;;10.64;92.83
51759;BME280;66684;47.568;18.734;2023-05-11T02:01:21;99528.44;;;10.69;92.56
51759;BME280;66684;47.568;18.734;2023-05-11T02:03:49;99524.00;;;10.66;92.80
51759;BME280;66684;47.568;18.734;2023-05-11T02:06:18;99526.38;;;10.83;92.67
51759;BME280;66684;47.568;18.734;2023-05-11T02:08:45;99523.19;;;10.90;92.57
51759;BME280;66684;47.568;18.734;2023-05-11T02:11:12;99522.03;;;10.82;93.04
51759;BME280;66684;47.568;18.734;2023-05-11T02:13:41;99517.00;;;10.86;93.04
51759;BME280;66684;47.568;18.734;2023-05-11T02:16:09;99520.72;;;10.93;92.72
51759;BME280;66684;47.568;18.734;2023-05-11T02:18:38;99525.41;;;11.03;92.79
51759;BME280;66684;47.568;18.734;2023-05-11T02:21:08;99518.94;;;11.14;90.51
51759;BME280;66684;47.568;18.734;2023-05-11T02:23:35;99521.63;;;11.17;90.41
51759;BME280;66684;47.568;18.734;2023-05-11T02:26:02;99509.12;;;11.29;90.17
51759;BME280;66684;47.568;18.734;2023-05-11T02:28:29;99503.13;;;11.30;88.99
51759;BME280;66684;47.568;18.734;2023-05-11T02:30:59;99514.44;;;11.32;90.17
51759;BME280;66684;47.568;18.734;2023-05-11T02:33:38;99511.13;;;11.37;89.49
51759;BME280;66684;47.568;18.734;2023-05-11T02:36:08;99503.09;;;11.29;91.30
51759;BME280;66684;47.568;18.734;2023-05-11T02:38:35;99499.53;;;11.25;92.01
51759;BME280;66684;47.568;18.734;2023-05-11T02:41:08;99497.87;;;11.27;91.66
51759;BME280;66684;47.568;18.734;2023-05-11T02:43:38;99496.16;;;11.28;93.94
51759;BME280;66684;47.568;18.734;2023-05-11T02:46:12;99506.09;;;11.17;93.95
51759;BME280;66684;47.568;18.734;2023-05-11T02:48:42;99499.56;;;11.03;93.57
51759;BME280;66684;47.568;18.734;2023-05-11T02:51:11;99503.03;;;11.03;94.33
51759;BME280;66684;47.568;18.734;2023-05-11T02:53:40;99498.25;;;11.14;93.92
51759;BME280;66684;47.568;18.734;2023-05-11T02:56:07;99493.38;;;10.99;94.19
51759;BME280;66684;47.568;18.734;2023-05-11T02:58:34;99498.03;;;11.08;93.57
51759;BME280;66684;47.568;18.734;2023-05-11T03:01:00;99503.44;;;11.14;94.33
51759;BME280;66684;47.568;18.734;2023-05-11T03:03:26;99501.53;;;11.10;94.77
51759;BME280;66684;47.568;18.734;2023-05-11T03:05:52;99498.69;;;11.02;94.08
51759;BME280;66684;47.568;18.734;2023-05-11T03:08:18;99497.03;;;11.04;92.28
51759;BME280;66684;47.568;18.734;2023-05-11T03:10:44;99491.91;;;11.06;93.97
51759;BME280;66684;47.568;18.734;2023-05-11T03:13:11;99499.88;;;11.12;93.59
51759;BME280;66684;47.568;18.734;2023-05-11T03:15:38;99501.53;;;11.10;91.89
51759;BME280;66684;47.568;18.734;2023-05-11T03:18:06;99502.97;;;11.02;91.85
51759;BME280;66684;47.568;18.734;2023-05-11T03:20:36;99504.06;;;11.08;91.84
51759;BME280;66684;47.568;18.734;2023-05-11T03:23:05;99503.19;;;11.08;91.95
51759;BME280;66684;47.568;18.734;2023-05-11T03:25:32;99510.12;;;11.09;90.84
51759;BME280;66684;47.568;18.734;2023-05-11T03:27:59;99507.88;;;10.94;91.42
51759;BME280;66684;47.568;18.734;2023-05-11T03:30:27;99504.16;;;10.88;91.09
51759;BME280;66684;47.568;18.734;2023-05-11T03:32:53;99510.09;;;10.85;91.25
51759;BME280;66684;47.568;18.734;2023-05-11T03:35:21;99511.69;;;10.82;91.30
51759;BME280;66684;47.568;18.734;2023-05-11T03:37:51;99505.69;;;10.83;91.65
51759;BME280;66684;47.568;18.734;2023-05-11T03:40:20;99510.78;;;10.59;93.29
51759;BME280;66684;47.568;18.734;2023-05-11T03:42:49;99513.78;;;10.47;94.07
51759;BME280;66684;47.568;18.734;2023-05-11T03:45:17;99515.53;;;10.48;92.10
51759;BME280;66684;47.568;18.734;2023-05-11T03:47:45;99508.41;;;10.42;93.15
51759;BME280;66684;47.568;18.734;2023-05-11T03:50:13;99511.09;;;10.44;93.89
51759;BME280;66684;47.568;18.734;2023-05-11T03:52:39;99506.91;;;10.47;93.29
51759;BME280;66684;47.568;18.734;2023-05-11T03:55:06;99506.00;;;10.24;95.39
51759;BME280;66684;47.568;18.734;2023-05-11T03:57:33;99509.59;;;10.28;95.65
51759;BME280;66684;47.568;18.734;2023-05-11T03:59:59;99505.78;;;10.41;95.55
51759;BME280;66684;47.568;18.734;2023-05-11T04:02:25;99507.78;;;10.48;95.17
51759;BME280;66684;47.568;18.734;2023-05-11T04:04:51;99507.13;;;10.31;95.61
51759;BME280;66684;47.568;18.734;2023-05-11T04:07:18;99502.22;;;10.37;96.09
51759;BME280;66684;47.568;18.734;2023-05-11T04:09:44;99507.38;;;10.60;95.90
51759;BME280;66684;47.568;18.734;2023-05-11T04:12:10;99506.75;;;10.65;95.76
51759;BME280;66684;47.568;18.734;2023-05-11T04:14:36;99505.81;;;10.63;95.56
51759;BME280;66684;47.568;18.734;2023-05-11T04:17:01;99506.16;;;10.50;96.76
51759;BME280;66684;47.568;18.734;2023-05-11T04:19:27;99512.94;;;10.69;96.39
51759;BME280;66684;47.568;18.734;2023-05-11T04:21:53;99512.63;;;10.84;95.61
51759;BME280;66684;47.568;18.734;2023-05-11T04:24:19;99514.97;;;10.77;96.52
51759;BME280;66684;47.568;18.734;2023-05-11T04:26:45;99513.25;;;10.78;97.50
51759;BME280;66684;47.568;18.734;2023-05-11T04:29:11;99511.84;;;10.86;98.59
51759;BME280;66684;47.568;18.734;2023-05-11T04:31:37;99515.53;;;10.93;98.33
51759;BME280;66684;47.568;18.734;2023-05-11T04:34:05;99520.97;;;10.76;97.71
51759;BME280;66684;47.568;18.734;2023-05-11T04:36:32;99516.97;;;10.85;98.84
51759;BME280;66684;47.568;18.734;2023-05-11T04:38:58;99522.00;;;11.04;96.63
51759;BME280;66684;47.568;18.734;2023-05-11T04:41:23;99518.81;;;11.11;96.56
51759;BME280;66684;47.568;18.734;2023-05-11T04:43:50;99520.34;;;11.30;94.27
51759;BME280;66684;47.568;18.734;2023-05-11T04:46:16;99521.37;;;11.33;92.24
51759;BME280;66684;47.568;18.734;2023-05-11T04:48:42;99516.62;;;11.46;89.56
51759;BME280;66684;47.568;18.734;2023-05-11T04:51:08;99525.09;;;11.66;88.79
51759;BME280;66684;47.568;18.734;2023-05-11T04:53:34;99518.81;;;11.83;88.22
51759;BME280;66684;47.568;18.734;2023-05-11T04:56:00;99519.38;;;12.00;87.25
51759;BME280;66684;47.568;18.734;2023-05-11T04:58:26;99514.72;;;12.15;83.63
51759;BME280;66684;47.568;18.734;2023-05-11T05:00:52;99519.84;;;12.40;80.55
51759;BME280;66684;47.568;18.734;2023-05-11T05:03:17;99512.06;;;12.67;75.82
51759;BME280;66684;47.568;18.734;2023-05-11T05:05:43;99519.50;;;12.85;72.73
51759;BME280;66684;47.568;18.734;2023-05-11T05:08:09;99516.19;;;12.89;71.27
51759;BME280;66684;47.568;18.734;2023-05-11T05:10:35;99522.16;;;12.87;71.56
51759;BME280;66684;47.568;18.734;2023-05-11T05:13:01;99526.56;;;12.89;71.64
51759;BME280;66684;47.568;18.734;2023-05-11T05:15:27;99532.00;;;12.99;74.72
51759;BME280;66684;47.568;18.734;2023-05-11T05:17:53;99531.22;;;13.01;74.17
51759;BME280;66684;47.568;18.734;2023-05-11T05:20:19;99524.38;;;13.03;70.72
51759;BME280;66684;47.568;18.734;2023-05-11T05:22:45;99533.09;;;13.07;70.54
51759;BME280;66684;47.568;18.734;2023-05-11T05:25:11;99534.16;;;13.13;69.92
51759;BME280;66684;47.568;18.734;2023-05-11T05:27:36;99536.25;;;13.25;68.95
51759;BME280;66684;47.568;18.734;2023-05-11T05:30:02;99525.50;;;13.41;68.13
51759;BME280;66684;47.568;18.734;2023-05-11T05:32:28;99534.56;;;13.57;66.38
51759;BME280;66684;47.568;18.734;2023-05-11T05:34:54;99529.88;;;13.75;65.30
51759;BME280;66684;47.568;18.734;2023-05-11T05:37:20;99528.56;;;13.91;65.17
51759;BME280;66684;47.568;18.734;2023-05-11T05:39:46;99521.72;;;13.95;65.02
51759;BME280;66684;47.568;18.734;2023-05-11T05:42:12;99531.78;;;14.16;64.59
51759;BME280;66684;47.568;18.734;2023-05-11T05:44:38;99527.97;;;14.38;61.86
51759;BME280;66684;47.568;18.734;2023-05-11T05:47:04;99524.00;;;14.50;60.57
51759;BME280;66684;47.568;18.734;2023-05-11T05:49:30;99535.34;;;14.54;60.11
51759;BME280;66684;47.568;18.734;2023-05-11T05:51:56;99531.88;;;14.53;60.98
51759;BME280;66684;47.568;18.734;2023-05-11T05:54:22;99531.16;;;14.61;61.22
51759;BME280;66684;47.568;18.734;2023-05-11T05:56:47;99517.53;;;14.71;60.12
51759;BME280;66684;47.568;18.734;2023-05-11T05:59:15;99533.00;;;14.65;59.40
51759;BME280;66684;47.568;18.734;2023-05-11T06:01:40;99525.66;;;14.84;59.53
51759;BME280;66684;47.568;18.734;2023-05-11T06:04:13;99521.19;;;14.79;58.42
51759;BME280;66684;47.568;18.734;2023-05-11T06:06:40;99529.91;;;14.81;57.90
51759;BME280;66684;47.568;18.734;2023-05-11T06:09:06;99532.31;;;14.72;57.13
51759;BME280;66684;47.568;18.734;2023-05-11T06:11:32;99541.97;;;14.77;57.91
51759;BME280;66684;47.568;18.734;2023-05-11T06:13:58;99537.56;;;14.75;58.81
51759;BME280;66684;47.568;18.734;2023-05-11T06:16:24;99542.03;;;14.80;58.55
51759;BME280;66684;47.568;18.734;2023-05-11T06:18:51;99544.09;;;14.57;58.05
51759;BME280;66684;47.568;18.734;2023-05-11T06:21:17;99540.59;;;14.57;58.87
51759;BME280;66684;47.568;18.734;2023-05-11T06:23:43;99541.72;;;14.67;58.21
51759;BME280;66684;47.568;18.734;2023-05-11T06:26:09;99545.25;;;14.70;57.58
51759;BME280;66684;47.568;18.734;2023-05-11T06:28:34;99545.94;;;14.62;58.28
51759;BME280;66684;47.568;18.734;2023-05-11T06:31:01;99538.69;;;14.86;57.52
51759;BME280;66684;47.568;18.734;2023-05-11T06:33:28;99539.41;;;14.79;57.09
51759;BME280;66684;47.568;18.734;2023-05-11T06:35:54;99540.56;;;14.93;57.07
51759;BME280;66684;47.568;18.734;2023-05-11T06:38:20;99534.81;;;15.08;56.31
51759;BME280;66684;47.568;18.734;2023-05-11T06:40:51;99542.72;;;15.13;55.73
51759;BME280;66684;47.568;18.734;2023-05-11T06:43:16;99548.88;;;15.16;56.08
51759;BME280;66684;47.568;18.734;2023-05-11T06:45:44;99551.91;;;15.37;56.72
51759;BME280;66684;47.568;18.734;2023-05-11T06:48:10;99542.47;;;15.41;55.29
51759;BME280;66684;47.568;18.734;2023-05-11T06:50:36;99549.75;;;15.59;54.97
51759;BME280;66684;47.568;18.734;2023-05-11T06:53:01;99552.16;;;15.48;55.28
51759;BME280;66684;47.568;18.734;2023-05-11T06:55:27;99551.16;;;15.42;55.48
51759;BME280;66684;47.568;18.734;2023-05-11T06:57:53;99548.41;;;15.34;55.79
51759;BME280;66684;47.568;18.734;2023-05-11T07:00:21;99543.59;;;15.54;55.54
51759;BME280;66684;47.568;18.734;2023-05-11T07:02:46;99550.91;;;15.72;54.63
51759;BME280;66684;47.568;18.734;2023-05-11T07:05:12;99549.22;;;15.74;54.36
51759;BME280;66684;47.568;18.734;2023-05-11T07:07:39;99543.53;;;15.52;55.88
51759;BME280;66684;47.568;18.734;2023-05-11T07:10:05;99543.72;;;15.61;55.61
51759;BME280;66684;47.568;18.734;2023-05-11T07:12:32;99542.66;;;15.52;55.95
51759;BME280;66684;47.568;18.734;2023-05-11T07:14:58;99549.13;;;15.71;55.30
51759;BME280;66684;47.568;18.734;2023-05-11T07:17:27;99529.56;;;15.93;54.91
51759;BME280;66684;47.568;18.734;2023-05-11T07:19:53;99540.97;;;15.99;55.73
51759;BME280;66684;47.568;18.734;2023-05-11T07:22:20;99543.94;;;16.21;55.13
51759;BME280;66684;47.568;18.734;2023-05-11T07:24:46;99539.69;;;16.26;54.31
51759;BME280;66684;47.568;18.734;2023-05-11T07:27:12;99538.88;;;16.28;53.71
51759;BME280;66684;47.568;18.734;2023-05-11T07:29:40;99530.88;;;16.17;52.98
51759;BME280;66684;47.568;18.734;2023-05-11T07:32:06;99532.28;;;15.97;54.95
51759;BME280;66684;47.568;18.734;2023-05-11T07:34:32;99532.41;;;16.06;53.36
51759;BME280;66684;47.568;18.734;2023-05-11T07:36:58;99534.44;;;16.23;55.43
51759;BME280;66684;47.568;18.734;2023-05-11T07:39:24;99532.16;;;16.44;52.15
51759;BME280;66684;47.568;18.734;2023-05-11T07:41:50;99535.53;;;16.37;53.02
51759;BME280;66684;47.568;18.734;2023-05-11T07:44:16;99545.69;;;16.20;52.47
51759;BME280;66684;47.568;18.734;2023-05-11T07:46:42;99534.34;;;16.16;52.57
51759;BME280;66684;47.568;18.734;2023-05-11T07:49:10;99531.13;;;16.33;51.89
51759;BME280;66684;47.568;18.734;2023-05-11T07:51:36;99529.47;;;16.38;53.07
51759;BME280;66684;47.568;18.734;2023-05-11T07:54:02;99532.41;;;16.59;52.39
51759;BME280;66684;47.568;18.734;2023-05-11T07:56:28;99536.78;;;16.60;52.29
51759;BME280;66684;47.568;18.734;2023-05-11T07:58:54;99537.84;;;16.71;50.99
51759;BME280;66684;47.568;18.734;2023-05-11T08:01:20;99538.06;;;16.87;51.43
51759;BME280;66684;47.568;18.734;2023-05-11T08:03:46;99530.34;;;16.96;50.67
51759;BME280;66684;47.568;18.734;2023-05-11T08:06:12;99523.63;;;17.13;49.75
51759;BME280;66684;47.568;18.734;2023-05-11T08:08:38;99527.22;;;17.21;50.75
51759;BME280;66684;47.568;18.734;2023-05-11T08:11:04;99522.94;;;17.28;49.78
51759;BME280;66684;47.568;18.734;2023-05-11T08:13:30;99529.19;;;17.41;49.60
51759;BME280;66684;47.568;18.734;2023-05-11T08:15:56;99522.41;;;17.57;48.56
51759;BME280;66684;47.568;18.734;2023-05-11T08:18:22;99513.41;;;17.32;49.91
51759;BME280;66684;47.568;18.734;2023-05-11T08:20:48;99510.88;;;17.38;50.30
51759;BME280;66684;47.568;18.734;2023-05-11T08:23:14;99515.38;;;17.48;48.57
51759;BME280;66684;47.568;18.734;2023-05-11T08:26:09;99514.50;;;17.49;48.31
51759;BME280;66684;47.568;18.734;2023-05-11T08:28:35;99504.78;;;17.36;48.56
51759;BME280;66684;47.568;18.734;2023-05-11T08:31:01;99506.44;;;17.31;46.77
51759;BME280;66684;47.568;18.734;2023-05-11T08:33:27;99501.94;;;17.19;47.72
51759;BME280;66684;47.568;18.734;2023-05-11T08:35:53;99502.12;;;17.34;49.04
51759;BME280;66684;47.568;18.734;2023-05-11T08:38:20;99500.75;;;17.67;48.54
51759;BME280;66684;47.568;18.734;2023-05-11T08:40:46;99506.97;;;17.75;46.57
51759;BME280;66684;47.568;18.734;2023-05-11T08:43:14;99503.63;;;17.90;45.39
51759;BME280;66684;47.568;18.734;2023-05-11T08:45:44;99497.28;;;17.71;46.62
51759;BME280;66684;47.568;18.734;2023-05-11T08:48:15;99492.34;;;17.97;45.87
51759;BME280;66684;47.568;18.734;2023-05-11T08:50:44;99495.16;;;18.17;46.51
51759;BME280;66684;47.568;18.734;2023-05-11T08:53:10;99495.00;;;18.00;46.24
51759;BME280;66684;47.568;18.734;2023-05-11T08:55:37;99492.50;;;18.14;45.05
51759;BME280;66684;47.568;18.734;2023-05-11T08:58:05;99486.56;;;18.34;45.77
51759;BME280;66684;47.568;18.734;2023-05-11T09:00:32;99484.97;;;18.59;44.93
51759;BME280;66684;47.568;18.734;2023-05-11T09:02:58;99487.72;;;18.72;45.02
51759;BME280;66684;47.568;18.734;2023-05-11T09:05:25;99488.50;;;18.63;44.42
51759;BME280;66684;47.568;18.734;2023-05-11T09:07:59;99484.16;;;18.64;45.02
51759;BME280;66684;47.568;18.734;2023-05-11T09:10:27;99476.28;;;18.62;43.87
51759;BME280;66684;47.568;18.734;2023-05-11T09:12:53;99479.75;;;18.58;44.75
51759;BME280;66684;47.568;18.734;2023-05-11T09:15:19;99470.97;;;18.50;45.59
51759;BME280;66684;47.568;18.734;2023-05-11T09:17:44;99473.75;;;18.70;44.94
51759;BME280;66684;47.568;18.734;2023-05-11T09:20:10;99468.63;;;18.90;45.87
51759;BME280;66684;47.568;18.734;2023-05-11T09:22:47;99466.97;;;19.11;45.53
51759;BME280;66684;47.568;18.734;2023-05-11T09:25:14;99469.63;;;19.28;44.46
51759;BME280;66684;47.568;18.734;2023-05-11T09:27:42;99465.25;;;19.20;44.54
51759;BME280;66684;47.568;18.734;2023-05-11T09:30:17;99460.91;;;19.29;44.94
51759;BME280;66684;47.568;18.734;2023-05-11T09:32:54;99461.88;;;19.59;43.93
51759;BME280;66684;47.568;18.734;2023-05-11T09:35:31;99455.78;;;19.66;42.86
51759;BME280;66684;47.568;18.734;2023-05-11T09:38:08;99460.19;;;19.76;43.97
51759;BME280;66684;47.568;18.734;2023-05-11T09:40:38;99454.06;;;19.83;43.77
51759;BME280;66684;47.568;18.734;2023-05-11T09:43:19;99447.91;;;19.66;43.88
51759;BME280;66684;47.568;18.734;2023-05-11T09:45:49;99450.47;;;19.45;39.89
51759;BME280;66684;47.568;18.734;2023-05-11T09:50:46;99441.75;;;19.36;38.98
51759;BME280;66684;47.568;18.734;2023-05-11T09:53:13;99444.41;;;19.55;38.38
51759;BME280;66684;47.568;18.734;2023-05-11T09:55:53;99445.28;;;19.66;39.75
51759;BME280;66684;47.568;18.734;2023-05-11T09:58:20;99447.00;;;19.52;40.04
51759;BME280;66684;47.568;18.734;2023-05-11T10:00:50;99436.50;;;19.46;38.50
51759;BME280;66684;47.568;18.734;2023-05-11T10:03:17;99436.50;;;19.36;38.42
51759;BME280;66684;47.568;18.734;2023-05-11T10:05:56;99436.56;;;19.73;38.17
51759;BME280;66684;47.568;18.734;2023-05-11T10:08:30;99433.09;;;20.08;39.68
51759;BME280;66684;47.568;18.734;2023-05-11T10:10:56;99432.22;;;20.06;36.61
51759;BME280;66684;47.568;18.734;2023-05-11T10:13:23;99421.75;;;19.74;37.36
51759;BME280;66684;47.568;18.734;2023-05-11T10:15:53;99427.81;;;19.99;38.49
51759;BME280;66684;47.568;18.734;2023-05-11T10:18:19;99427.84;;;19.89;37.35
51759;BME280;66684;47.568;18.734;2023-05-11T10:20:46;99426.09;;;19.94;39.04
51759;BME280;66684;47.568;18.734;2023-05-11T10:23:13;99415.59;;;20.13;38.82
51759;BME280;66684;47.568;18.734;2023-05-11T10:25:39;99412.09;;;20.26;36.81
51759;BME280;66684;47.568;18.734;2023-05-11T10:28:05;99404.22;;;20.05;36.52
51759;BME280;66684;47.568;18.734;2023-05-11T10:30:32;99403.38;;;20.00;37.26
51759;BME280;66684;47.568;18.734;2023-05-11T10:33:00;99404.25;;;20.06;37.22
51759;BME280;66684;47.568;18.734;2023-05-11T10:35:26;99397.25;;;20.13;36.30
51759;BME280;66684;47.568;18.734;2023-05-11T10:37:52;99398.09;;;20.24;36.19
51759;BME280;66684;47.568;18.734;2023-05-11T10:40:19;99401.53;;;20.60;36.46
51759;BME280;66684;47.568;18.734;2023-05-11T10:57:07;99387.56;;;20.33;36.16
51759;BME280;66684;47.568;18.734;2023-05-11T10:59:50;99397.22;;;20.19;34.76
51759;BME280;66684;47.568;18.734;2023-05-11T11:02:20;99382.38;;;20.06;34.21
51759;BME280;66684;47.568;18.734;2023-05-11T11:04:47;99390.25;;;20.18;35.20
51759;BME280;66684;47.568;18.734;2023-05-11T11:07:13;99380.56;;;20.38;35.81
51759;BME280;66684;47.568;18.734;2023-05-11T11:09:50;99387.59;;;20.32;37.14
51759;BME280;66684;47.568;18.734;2023-05-11T11:12:17;99385.84;;;20.28;35.87
51759;BME280;66684;47.568;18.734;2023-05-11T11:15:01;99379.75;;;20.13;34.45
51759;BME280;66684;47.568;18.734;2023-05-11T11:17:31;99378.88;;;20.04;36.09
51759;BME280;66684;47.568;18.734;2023-05-11T11:20:03;99377.13;;;20.13;35.30
51759;BME280;66684;47.568;18.734;2023-05-11T11:25:01;99386.75;;;20.05;35.36
51759;BME280;66684;47.568;18.734;2023-05-11T11:30:20;99378.00;;;20.06;35.44
51759;BME280;66684;47.568;18.734;2023-05-11T11:32:54;99375.31;;;20.29;35.70
51759;BME280;66684;47.568;18.734;2023-05-11T11:40:42;99373.50;;;20.71;34.34
51759;BME280;66684;47.568;18.734;2023-05-11T11:45:37;99379.50;;;20.97;33.82
51759;BME280;66684;47.568;18.734;2023-05-11T11:48:08;99367.97;;;21.23;33.55
51759;BME280;66684;47.568;18.734;2023-05-11T11:50:34;99374.63;;;21.73;34.03
51759;BME280;66684;47.568;18.734;2023-05-11T11:53:00;99369.88;;;22.18;33.48
51759;BME280;66684;47.568;18.734;2023-05-11T12:01:22;99354.97;;;22.17;32.38
51759;BME280;66684;47.568;18.734;2023-05-11T12:06:36;99354.97;;;22.17;32.05
51759;BME280;66684;47.568;18.734;2023-05-11T12:09:03;99358.44;;;22.19;32.47
51759;BME280;66684;47.568;18.734;2023-05-11T12:11:30;99363.53;;;22.37;33.28
51759;BME280;66684;47.568;18.734;2023-05-11T12:13:58;99344.25;;;22.35;31.59
51759;BME280;66684;47.568;18.734;2023-05-11T12:16:24;99351.69;;;21.90;31.45
51759;BME280;66684;47.568;18.734;2023-05-11T12:18:52;99353.78;;;21.48;32.48
51759;BME280;66684;47.568;18.734;2023-05-11T12:21:19;99341.53;;;21.47;32.73
51759;BME280;66684;47.568;18.734;2023-05-11T12:26:19;99341.38;;;21.69;31.60
51759;BME280;66684;47.568;18.734;2023-05-11T12:28:47;99341.19;;;21.89;32.45
51759;BME280;66684;47.568;18.734;2023-05-11T12:31:17;99330.81;;;21.75;31.74
51759;BME280;66684;47.568;18.734;2023-05-11T12:33:50;99334.00;;;22.09;32.78
51759;BME280;66684;47.568;18.734;2023-05-11T12:36:17;99333.25;;;21.95;30.65
51759;BME280;66684;47.568;18.734;2023-05-11T12:38:44;99336.22;;;21.55;31.57
51759;BME280;66684;47.568;18.734;2023-05-11T12:41:18;99327.44;;;21.54;32.68
51759;BME280;66684;47.568;18.734;2023-05-11T12:43:47;99327.44;;;21.58;32.87
51759;BME280;66684;47.568;18.734;2023-05-11T12:46:13;99327.63;;;21.35;32.67
51759;BME280;66684;47.568;18.734;2023-05-11T12:48:39;99322.03;;;21.76;33.13
51759;BME280;66684;47.568;18.734;2023-05-11T12:51:05;99325.22;;;22.05;32.49
51759;BME280;66684;47.568;18.734;2023-05-11T12:53:35;99321.59;;;22.22;32.03
51759;BME280;66684;47.568;18.734;2023-05-11T12:56:01;99315.28;;;22.35;31.17
51759;BME280;66684;47.568;18.734;2023-05-11T12:58:36;99317.97;;;22.32;31.11
51759;BME280;66684;47.568;18.734;2023-05-11T13:01:03;99318.44;;;21.83;32.51
51759;BME280;66684;47.568;18.734;2023-05-11T13:03:31;99320.34;;;21.66;32.61
51759;BME280;66684;47.568;18.734;2023-05-11T13:06:09;99318.50;;;21.74;32.05
51759;BME280;66684;47.568;18.734;2023-05-11T13:08:36;99313.50;;;21.46;32.77
51759;BME280;66684;47.568;18.734;2023-05-11T13:11:23;99312.50;;;21.61;32.60
51759;BME280;66684;47.568;18.734;2023-05-11T13:13:55;99305.31;;;21.81;33.17
51759;BME280;66684;47.568;18.734;2023-05-11T13:16:29;99308.09;;;21.62;32.48
51759;BME280;66684;47.568;18.734;2023-05-11T13:21:23;99288.22;;;21.32;32.71
51759;BME280;66684;47.568;18.734;2023-05-11T13:23:50;99285.25;;;21.70;32.68
51759;BME280;66684;47.568;18.734;2023-05-11T13:26:27;99298.22;;;21.90;31.65
51759;BME280;66684;47.568;18.734;2023-05-11T13:28:53;99289.47;;;21.86;30.78
51759;BME280;66684;47.568;18.734;2023-05-11T13:31:19;99295.03;;;21.57;31.22
51759;BME280;66684;47.568;18.734;2023-05-11T13:33:49;99285.31;;;21.64;31.83
51759;BME280;66684;47.568;18.734;2023-05-11T13:36:16;99274.75;;;21.70;32.58
51759;BME280;66684;47.568;18.734;2023-05-11T13:38:42;99280.31;;;21.33;32.27
51759;BME280;66684;47.568;18.734;2023-05-11T13:41:08;99281.47;;;20.94;32.36
51759;BME280;66684;47.568;18.734;2023-05-11T13:43:35;99278.75;;;21.08;32.71
51759;BME280;66684;47.568;18.734;2023-05-11T13:46:01;99268.22;;;21.05;33.05
51759;BME280;66684;47.568;18.734;2023-05-11T13:48:30;99268.91;;;21.34;32.98
51759;BME280;66684;47.568;18.734;2023-05-11T13:50:56;99265.22;;;21.55;31.59
51759;BME280;66684;47.568;18.734;2023-05-11T13:53:22;99269.72;;;21.42;32.06